createdAt,value
2023-01-15T00:02:17.916Z,12.71
2023-01-15T00:07:17.223Z,12.58
2023-01-15T00:12:10.152Z,12.45
2023-01-15T00:17:00.750Z,12.31
2023-01-15T00:21:53.090Z,11.66
2023-01-15T00:27:01.855Z,11.61
2023-01-15T00:32:04.503Z,11.38
2023-01-15T00:37:00.165Z,11.95
2023-01-15T00:41:54.823Z,11.79
2023-01-15T00:46:46.432Z,11.75
2023-01-15T00:51:39.366Z,11.58
2023-01-15T00:56:33.855Z,11.31
2023-01-15T01:01:27.844Z,11.37
2023-01-15T01:06:19.263Z,12.12
2023-01-15T01:11:10.181Z,12.15
2023-01-15T01:16:00.065Z,12.08
2023-01-15T01:20:52.365Z,11.34
2023-01-15T01:25:47.133Z,11.19
2023-01-15T01:30:37.884Z,11.18
2023-01-15T01:35:29.907Z,11.00
2023-01-15T01:40:22.439Z,11.13
2023-01-15T01:45:24.955Z,11.03
2023-01-15T01:50:16.434Z,11.19
2023-01-15T01:55:09.410Z,11.14
2023-01-15T02:00:07.441Z,11.17
2023-01-15T02:05:02.907Z,11.12
2023-01-15T02:09:53.865Z,11.12
2023-01-15T02:14:47.653Z,10.98
2023-01-15T02:20:08.497Z,10.86
2023-01-15T02:25:25.264Z,11.09
2023-01-15T02:30:24.192Z,10.88
2023-01-15T02:35:21.942Z,10.86
2023-01-15T02:40:18.829Z,11.61
2023-01-15T02:45:14.723Z,11.93
2023-01-15T02:50:15.266Z,11.93
2023-01-15T02:55:11.757Z,11.93
2023-01-15T03:00:08.413Z,11.93
2023-01-15T03:05:00.240Z,11.69
2023-01-15T03:09:53.604Z,11.77
2023-01-15T03:14:47.354Z,11.85
2023-01-15T03:19:44.068Z,11.75
2023-01-15T03:24:43.196Z,11.91
2023-01-15T03:29:36.610Z,11.82
2023-01-15T03:34:28.184Z,11.80
2023-01-15T03:39:19.929Z,11.46
2023-01-15T03:44:27.957Z,11.63
2023-01-15T03:49:24.665Z,11.52
2023-01-15T03:54:20.352Z,11.61
2023-01-15T03:59:14.920Z,11.58
2023-01-15T04:04:21.640Z,11.36
2023-01-15T04:09:15.120Z,11.38
2023-01-15T04:14:07.481Z,11.43
2023-01-15T04:19:13.046Z,11.51
2023-01-15T04:24:15.854Z,11.46
2023-01-15T04:29:06.650Z,11.34
2023-01-15T04:33:59.677Z,11.39
2023-01-15T04:38:50.481Z,11.32
2023-01-15T04:43:55.395Z,11.42
2023-01-15T04:48:45.856Z,11.34
2023-01-15T04:53:35.299Z,11.45
2023-01-15T04:58:24.825Z,11.23
2023-01-15T05:03:17.000Z,11.15
2023-01-15T05:08:07.225Z,11.35
2023-01-15T05:12:56.761Z,11.38
2023-01-15T05:17:46.245Z,11.09
2023-01-15T05:22:38.939Z,11.14
2023-01-15T05:27:28.664Z,11.13
2023-01-15T05:32:18.251Z,11.07
2023-01-15T05:37:08.134Z,11.16
2023-01-15T05:42:02.745Z,10.98
2023-01-15T05:46:54.822Z,10.96
2023-01-15T05:51:44.474Z,11.14
2023-01-15T05:56:34.882Z,11.06
2023-01-15T06:01:28.682Z,11.05
2023-01-15T06:06:19.108Z,11.27
2023-01-15T06:11:10.347Z,11.39
2023-01-15T06:16:02.187Z,11.35
2023-01-15T06:20:56.190Z,11.19
2023-01-15T06:25:45.745Z,11.16
2023-01-15T06:30:37.407Z,11.26
2023-01-15T06:35:28.325Z,11.17
2023-01-15T06:40:21.743Z,10.95
2023-01-15T06:45:25.215Z,10.73
2023-01-15T06:50:18.241Z,10.85
2023-01-15T06:55:11.817Z,10.89
2023-01-15T07:00:10.939Z,10.87
2023-01-15T07:05:06.265Z,10.67
2023-01-15T07:09:56.250Z,10.92
2023-01-15T07:14:48.561Z,10.92
2023-01-15T07:19:41.060Z,10.92
2023-01-15T07:24:31.011Z,10.65
2023-01-15T07:29:21.736Z,10.72
2023-01-15T07:34:15.409Z,10.77
2023-01-15T07:39:26.220Z,10.56
2023-01-15T07:44:29.251Z,10.67
2023-01-15T07:49:33.155Z,10.62
2023-01-15T07:54:28.539Z,10.43
2023-01-15T07:59:20.492Z,10.63
2023-01-15T08:04:10.489Z,10.56
2023-01-15T08:09:00.537Z,10.71
2023-01-15T08:14:06.572Z,10.67
2023-01-15T08:18:56.148Z,10.36
2023-01-15T08:23:47.007Z,10.57
2023-01-15T08:28:36.618Z,10.78
2023-01-15T08:33:28.784Z,10.65
2023-01-15T08:38:21.173Z,10.89
2023-01-15T08:43:10.856Z,10.89
2023-01-15T08:48:01.095Z,10.85
2023-01-15T08:52:53.660Z,10.81
2023-01-15T08:57:44.614Z,10.90
2023-01-15T09:02:34.210Z,10.84
2023-01-15T09:07:26.680Z,10.68
2023-01-15T09:12:33.909Z,10.85
2023-01-15T09:17:30.608Z,10.95
2023-01-15T09:22:25.944Z,10.87
2023-01-15T09:27:23.607Z,11.09
2023-01-15T09:32:18.011Z,11.05
2023-01-15T09:37:08.727Z,11.00
2023-01-15T09:42:17.670Z,11.37
2023-01-15T09:47:20.033Z,11.24
2023-01-15T09:52:17.308Z,11.32
2023-01-15T09:57:14.083Z,11.24
2023-01-15T10:02:08.255Z,11.54
2023-01-15T10:07:11.153Z,11.76
2023-01-15T10:12:20.556Z,11.80
2023-01-15T10:17:22.823Z,12.05
2023-01-15T10:22:19.988Z,12.09
2023-01-15T10:27:21.299Z,11.96
2023-01-15T10:32:21.223Z,12.20
2023-01-15T10:37:14.922Z,12.07
2023-01-15T10:42:12.262Z,12.04
2023-01-15T10:47:08.332Z,11.99
2023-01-15T10:52:03.665Z,12.10
2023-01-15T10:57:01.845Z,12.12
2023-01-15T11:01:54.578Z,11.91
2023-01-15T11:06:47.373Z,11.77
2023-01-15T11:12:08.675Z,11.59
2023-01-15T11:17:12.623Z,11.44
2023-01-15T11:22:09.969Z,11.49
2023-01-15T11:26:59.793Z,11.60
2023-01-15T11:31:49.590Z,11.52
2023-01-15T11:36:39.637Z,11.52
2023-01-15T11:41:54.680Z,11.33
2023-01-15T11:47:05.573Z,11.62
2023-01-15T11:52:00.868Z,11.12
2023-01-15T11:56:56.833Z,11.33
2023-01-15T12:01:54.987Z,11.54
2023-01-15T12:06:45.218Z,11.52
2023-01-15T12:11:39.668Z,11.39
2023-01-15T12:16:38.752Z,11.58
2023-01-15T12:21:38.441Z,11.54
2023-01-15T12:26:30.555Z,11.79
2023-01-15T12:31:26.873Z,11.79
2023-01-15T12:36:22.450Z,11.98
2023-01-15T12:41:14.758Z,11.90
2023-01-15T12:46:07.639Z,12.10
2023-01-15T12:51:00.080Z,11.67
2023-01-15T12:55:57.680Z,12.00
2023-01-15T13:00:51.563Z,11.89
2023-01-15T13:05:46.456Z,11.70
2023-01-15T13:10:40.500Z,11.69
2023-01-15T13:15:38.085Z,11.80
2023-01-15T13:20:46.871Z,11.90
2023-01-15T13:26:07.813Z,11.74
2023-01-15T13:31:10.612Z,11.68
2023-01-15T13:36:13.506Z,11.44
2023-01-15T13:41:03.277Z,11.74
2023-01-15T13:45:53.812Z,11.76
2023-01-15T13:50:55.596Z,11.86
2023-01-15T13:55:46.733Z,11.17
2023-01-15T14:00:39.071Z,11.73
2023-01-15T14:05:32.950Z,11.95
2023-01-15T14:10:45.154Z,12.05
2023-01-15T14:15:48.431Z,12.07
2023-01-15T14:20:48.583Z,12.02
2023-01-15T14:25:56.026Z,11.31
2023-01-15T14:31:04.725Z,11.36
2023-01-15T14:35:57.173Z,11.89
2023-01-15T14:40:55.815Z,11.88
2023-01-15T14:45:50.414Z,11.76
2023-01-15T14:50:44.156Z,11.97
2023-01-15T14:55:39.951Z,11.84
2023-01-15T15:00:32.961Z,11.66
2023-01-15T15:05:25.653Z,11.74
2023-01-15T15:10:24.276Z,11.63
2023-01-15T15:15:22.289Z,11.77
2023-01-15T15:20:29.663Z,11.38
2023-01-15T15:25:25.957Z,11.41
2023-01-15T15:30:17.267Z,11.36
2023-01-15T15:35:07.649Z,11.42
2023-01-15T15:40:01.169Z,11.09
2023-01-15T15:45:09.047Z,11.32
2023-01-15T15:50:02.977Z,11.04
2023-01-15T15:55:02.880Z,11.13
2023-01-15T15:59:56.701Z,11.05
2023-01-15T16:04:49.930Z,11.04
2023-01-15T16:09:42.691Z,10.90
2023-01-15T16:14:37.067Z,11.04
2023-01-15T16:19:29.500Z,10.78
2023-01-15T16:24:35.620Z,10.98
2023-01-15T16:29:28.877Z,10.77
2023-01-15T16:40:25.480Z,10.58
2023-01-15T16:45:22.828Z,10.69
2023-01-15T16:50:32.067Z,10.81
2023-01-15T16:55:40.519Z,10.66
2023-01-15T17:00:33.761Z,10.59
2023-01-15T17:05:33.633Z,10.58
2023-01-15T17:10:27.028Z,10.48
2023-01-15T17:15:31.741Z,10.46
2023-01-15T17:20:29.582Z,10.39
2023-01-15T17:25:27.581Z,10.24
2023-01-15T17:30:22.760Z,10.37
2023-01-15T17:35:22.260Z,10.41
2023-01-15T17:40:18.571Z,10.34
2023-01-15T17:45:22.770Z,9.48
2023-01-15T17:50:14.894Z,10.29
2023-01-15T17:55:19.131Z,9.23
2023-01-15T18:00:26.851Z,9.29
2023-01-15T18:05:33.545Z,10.07
2023-01-15T18:10:25.284Z,10.06
2023-01-15T18:15:26.198Z,10.16
2023-01-15T18:20:17.408Z,9.97
2023-01-15T18:25:10.977Z,9.92
2023-01-15T18:30:07.320Z,9.71
2023-01-15T18:34:59.772Z,9.67
2023-01-15T18:39:49.484Z,9.75
2023-01-15T18:44:52.792Z,9.71
2023-01-15T18:49:47.767Z,9.70
2023-01-15T18:54:43.356Z,9.47
2023-01-15T18:59:37.939Z,9.48
2023-01-15T19:04:29.716Z,9.47
2023-01-15T19:09:26.689Z,9.51
2023-01-15T19:14:35.276Z,9.61
2023-01-15T19:19:28.428Z,9.37
2023-01-15T19:24:23.290Z,9.28
2023-01-15T19:29:15.134Z,9.36
2023-01-15T19:34:33.092Z,9.45
2023-01-15T19:39:27.837Z,9.42
2023-01-15T19:44:31.782Z,9.55
2023-01-15T19:49:40.429Z,9.36
2023-01-15T19:54:43.830Z,9.46
2023-01-15T19:59:36.829Z,9.57
2023-01-15T20:04:32.064Z,9.53
2023-01-15T20:09:23.137Z,9.58
2023-01-15T20:14:14.079Z,9.56
2023-01-15T20:19:04.879Z,9.55
2023-01-15T20:23:57.590Z,9.54
2023-01-15T20:28:48.923Z,9.64
2023-01-15T20:33:42.667Z,9.67
2023-01-15T20:38:35.417Z,9.67
2023-01-15T20:43:44.648Z,9.68
2023-01-15T20:48:56.190Z,9.63
2023-01-15T20:53:46.470Z,9.68
2023-01-15T20:58:41.767Z,9.75
2023-01-15T21:03:37.884Z,9.77
2023-01-15T21:08:39.031Z,9.67
2023-01-15T21:13:48.069Z,9.76
2023-01-15T21:19:01.268Z,9.77
2023-01-15T21:23:50.795Z,9.82
2023-01-15T21:28:43.573Z,9.82
2023-01-15T21:33:41.723Z,9.85
2023-01-15T21:38:52.444Z,9.84
2023-01-15T21:44:00.083Z,9.84
2023-01-15T21:48:51.247Z,9.90
2023-01-15T21:53:41.118Z,9.95
2023-01-15T21:58:30.981Z,10.03
2023-01-15T22:03:26.060Z,10.02
2023-01-15T22:08:41.999Z,9.96
2023-01-15T22:13:34.747Z,10.01
2023-01-15T22:18:31.323Z,9.84
2023-01-15T22:23:26.026Z,9.83
2023-01-15T22:28:21.716Z,9.77
2023-01-15T22:33:12.712Z,9.64
2023-01-15T22:38:08.432Z,9.67
2023-01-15T22:43:04.002Z,9.52
2023-01-15T22:48:00.126Z,9.58
2023-01-15T22:52:57.949Z,9.51
2023-01-15T22:57:51.528Z,9.45
2023-01-15T23:02:55.497Z,9.45
2023-01-15T23:07:47.898Z,9.45
2023-01-15T23:12:40.146Z,9.44
2023-01-15T23:17:36.032Z,9.44
2023-01-15T23:22:27.450Z,9.38
2023-01-15T23:27:22.701Z,9.47
2023-01-15T23:32:21.421Z,9.35
2023-01-15T23:37:15.256Z,9.48
2023-01-15T23:42:17.565Z,9.48
2023-01-15T23:47:10.510Z,9.43
2023-01-15T23:52:03.688Z,9.36
2023-01-15T23:56:57.188Z,9.38
